Gerber, California
Current Conditions -  °F | °C
As of 8:54 PM on Friday 24 Oct 2014 (Local Time) from KRBL Reporting Station
Clear Clear  
Wind Chill: 64°   Ceiling: Unl
Heat Index: 64°   Visibility: 10mi
Dew Point: 53°   Wind: 0mph
Humidity: 67%   Direction: NA
Pressure: 29.82"   Gusts: NA
Location:  40.06°N, 122.15°W
Report Text: KRBL 250354Z AUTO 00000KT 10SM CLR 18/12 A2982 RMK AO2 SLP096 T01780117
Loading
Personal Weather Stations






























Interactive Weather Map New forecast layout! Learn more

10-Day Weather Forecast

Advertisements
Track Severe Weather on mobile